CheckWX is a tool to help pilots better visualize weather data.  It is not intended as a substitute for an official pre-flight weather briefing.

16:04:18 UTC

WSSL TAF
Seletar Airport
Seletar, Singapore
TAF WSSL 091100Z 0912/1018 22007KT 9999 FEW015 SCT020 TEMPO 1006/1009 3000 TSRA FEW012CB BKN015

Jul-9@
12:00 UTC

Jul-9 @ 12:00 UTC

Jul-10@
18:00 UTC

Jul-10 @ 18:00 UTC

TAF WSSL 091100Z 0912/1018 22007KT 9999 FEW015 SCT020
Wind
  • 220° at 7 KTS
Cloud Levels
  • Few at 1,500' AGL
  • Scattered at 2,000' AGL

Jul-10@
06:00 UTC

Jul-10 @ 06:00 UTC

Jul-10@
09:00 UTC

Jul-10 @ 09:00 UTC

TEMPO 1006/1009 3000 TSRA FEW012CB BKN015

Expired

Conditions
Thunderstorm, Rain
Cloud Levels
  • Few at 1,200' AGL
  • Broken at 1,500' AGL